Time;durP1;ratioP1;P1;durP2;ratioP2;P2;SDS_P1;SDS_P2;PMS_P1;PMS_P2;Temp;Humidity;BMP_temperature;BMP_pressure;BME280_temperature;BME280_humidity;BME280_pressure;Samples;Min_cycle;Max_cycle;Signal;HPM_P1;HPM_P2
2020/12/19 05:00:58;;;;;;;13.20;11.63;;;5.30;99.90;;;;;;5723541;23;20620;-65
2020/12/19 05:03:24;;;;;;;12.30;11.10;;;5.20;99.90;;;;;;4976545;28;20953;-65
2020/12/19 05:05:50;;;;;;;12.73;10.53;;;5.10;99.90;;;;;;4976800;28;20458;-65
2020/12/19 05:08:17;;;;;;;13.90;11.90;;;5.10;99.90;;;;;;4976194;28;20949;-65
2020/12/19 05:10:43;;;;;;;12.27;10.93;;;5.10;99.90;;;;;;4976827;28;20478;-64
2020/12/19 05:13:09;;;;;;;14.40;11.60;;;5.10;99.90;;;;;;4975595;28;20590;-66
2020/12/19 05:15:35;;;;;;;14.17;11.10;;;5.10;99.90;;;;;;4976450;28;20621;-64
2020/12/19 05:18:02;;;;;;;13.70;11.40;;;5.00;99.90;;;;;;4976432;28;20459;-63
2020/12/19 05:20:30;;;;;;;14.80;12.13;;;5.10;99.90;;;;;;4976425;28;20463;-64
2020/12/19 05:22:58;;;;;;;13.00;10.80;;;5.10;99.90;;;;;;4976353;28;20461;-64
2020/12/19 05:25:25;;;;;;;12.77;11.43;;;5.00;99.90;;;;;;4976780;28;20458;-65
2020/12/19 05:27:52;;;;;;;13.27;11.83;;;4.90;99.90;;;;;;4976770;28;20459;-65
2020/12/19 05:30:20;;;;;;;11.93;10.57;;;4.90;99.90;;;;;;4976284;28;20509;-65
2020/12/19 05:32:48;;;;;;;13.20;11.40;;;4.90;99.90;;;;;;4976427;28;20777;-63
2020/12/19 05:35:15;;;;;;;13.10;10.87;;;4.80;99.90;;;;;;4976548;28;20479;-65
2020/12/19 05:37:42;;;;;;;12.77;11.10;;;4.80;99.90;;;;;;4976360;28;20466;-65
2020/12/19 05:40:10;;;;;;;14.00;11.97;;;4.70;99.90;;;;;;4976200;28;20486;-64
2020/12/19 05:42:40;;;;;;;22.03;11.80;;;4.60;99.90;;;;;;4976288;28;20494;-64
2020/12/19 05:45:16;;;;;;;13.60;11.73;;;4.60;99.90;;;;;;4975559;28;20787;-65
2020/12/19 05:47:43;;;;;;;14.07;11.73;;;4.70;99.90;;;;;;4975474;28;20953;-65
2020/12/19 05:50:09;;;;;;;13.87;11.23;;;4.70;99.90;;;;;;4975763;28;20823;-64
2020/12/19 05:52:37;;;;;;;14.47;12.00;;;4.80;99.90;;;;;;4975873;28;20482;-64
2020/12/19 05:55:07;;;;;;;14.53;12.70;;;4.70;99.90;;;;;;4975551;28;20458;-64
2020/12/19 05:57:34;;;;;;;14.03;12.47;;;4.80;99.90;;;;;;4975911;28;20580;-65
2020/12/19 06:00:02;;;;;;;13.43;12.10;;;4.70;99.90;;;;;;4975532;28;20490;-65
2020/12/19 06:02:30;;;;;;;13.57;11.90;;;4.60;99.90;;;;;;4975673;28;20838;-64
2020/12/19 06:05:00;;;;;;;13.70;12.20;;;4.60;99.90;;;;;;4975700;28;20478;-65
2020/12/19 06:07:29;;;;;;;14.80;13.20;;;4.60;99.90;;;;;;4975800;28;20493;-63
2020/12/19 06:09:56;;;;;;;12.77;11.47;;;4.50;99.90;;;;;;4977440;28;20461;-65
2020/12/19 06:12:30;;;;;;;14.03;12.43;;;4.60;99.90;;;;;;4977065;28;20478;-64
2020/12/19 06:14:57;;;;;;;15.83;12.40;;;4.60;99.90;;;;;;4976169;28;20443;-64
2020/12/19 06:17:36;;;;;;;13.27;11.93;;;4.60;99.90;;;;;;4977253;28;20455;-64
2020/12/19 06:20:06;;;;;;;15.20;12.73;;;4.50;99.90;;;;;;4975924;28;20445;-64
2020/12/19 06:22:33;;;;;;;15.27;13.77;;;4.50;99.90;;;;;;4975813;28;20479;-64
2020/12/19 06:25:00;;;;;;;15.00;13.00;;;4.40;99.90;;;;;;4974929;28;20478;-64
2020/12/19 06:27:41;;;;;;;14.63;13.00;;;4.40;99.90;;;;;;4975943;28;20905;-65
2020/12/19 06:30:29;;;;;;;14.47;13.03;;;4.40;99.90;;;;;;4975617;28;20466;-65
2020/12/19 06:33:08;;;;;;;17.60;12.60;;;4.30;99.90;;;;;;4976019;28;20521;-64
2020/12/19 06:35:35;;;;;;;13.30;11.90;;;4.40;99.90;;;;;;4975298;28;20466;-66
2020/12/19 06:38:01;;;;;;;14.17;12.40;;;4.40;99.90;;;;;;4975017;28;20946;-64
2020/12/19 06:40:38;;;;;;;13.40;11.67;;;4.40;99.90;;;;;;4975104;28;20454;-65
2020/12/19 06:43:12;;;;;;;13.20;11.80;;;4.50;99.90;;;;;;4976048;28;20474;-64
2020/12/19 06:45:38;;;;;;;13.37;12.07;;;4.50;99.90;;;;;;4975663;28;20505;-63
2020/12/19 06:48:25;;;;;;;14.53;11.40;;;4.50;99.90;;;;;;4974972;28;20494;-63
2020/12/19 06:50:57;;;;;;;13.27;11.80;;;4.50;99.90;;;;;;4974633;28;20478;-63
2020/12/19 06:53:24;;;;;;;13.60;12.27;;;4.40;99.90;;;;;;4974713;28;20890;-65
2020/12/19 06:55:50;;;;;;;13.87;12.37;;;4.40;99.90;;;;;;4975148;28;20514;-63
2020/12/19 06:58:27;;;;;;;14.80;12.17;;;4.40;99.90;;;;;;4975787;28;20481;-63
2020/12/19 07:00:53;;;;;;;13.27;11.87;;;4.40;99.90;;;;;;4975145;28;20833;-64
2020/12/19 07:03:35;;;;;;;12.43;11.27;;;4.30;99.90;;;;;;4976028;28;20439;-64
2020/12/19 07:06:13;;;;;;;13.50;12.20;;;4.20;99.90;;;;;;4977202;28;20809;-64
2020/12/19 07:08:40;;;;;;;14.73;11.87;;;4.20;99.90;;;;;;4975412;28;20489;-64
2020/12/19 07:11:11;;;;;;;13.80;12.30;;;4.10;99.90;;;;;;4975150;28;20470;-64
2020/12/19 07:13:57;;;;;;;15.13;12.63;;;4.10;99.90;;;;;;4975185;28;20442;-62
2020/12/19 07:16:43;;;;;;;14.70;12.27;;;4.10;99.90;;;;;;4974478;28;20482;-63
2020/12/19 07:19:15;;;;;;;19.13;13.40;;;4.10;99.90;;;;;;4974953;28;20502;-63
2020/12/19 07:21:42;;;;;;;14.33;12.83;;;4.10;99.90;;;;;;4975797;28;20474;-65
2020/12/19 07:24:08;;;;;;;15.40;12.13;;;4.10;99.90;;;;;;4975089;28;20455;-63
2020/12/19 07:26:35;;;;;;;12.47;11.17;;;4.20;99.90;;;;;;4975461;28;20462;-63
2020/12/19 07:29:01;;;;;;;13.60;11.53;;;4.30;99.90;;;;;;4974959;28;20541;-63
2020/12/19 07:31:28;;;;;;;16.27;11.30;;;4.40;99.90;;;;;;4975931;28;20482;-64
2020/12/19 07:33:55;;;;;;;13.87;11.77;;;4.50;99.90;;;;;;4978801;28;20465;-63
2020/12/19 07:36:22;;;;;;;13.70;12.23;;;4.60;99.90;;;;;;4976763;28;20474;-63
2020/12/19 07:38:49;;;;;;;12.80;11.50;;;4.60;99.90;;;;;;4979037;28;20454;-65
2020/12/19 07:41:16;;;;;;;12.20;11.03;;;4.70;99.90;;;;;;4979591;28;20478;-64
2020/12/19 07:43:43;;;;;;;14.03;11.10;;;4.70;99.90;;;;;;4979497;28;20513;-64
2020/12/19 07:46:09;;;;;;;14.40;10.90;;;4.70;99.90;;;;;;4979870;28;20450;-64
2020/12/19 07:48:35;;;;;;;11.40;10.30;;;5.00;99.90;;;;;;4999468;28;20447;-63
2020/12/19 07:51:06;;;;;;;11.13;10.03;;;5.70;99.90;;;;;;4994490;28;20474;-65
2020/12/19 07:53:42;;;;;;;12.20;9.40;;;6.50;99.90;;;;;;4993748;28;20533;-65
2020/12/19 07:56:12;;;;;;;10.37;9.00;;;7.40;99.90;;;;;;4988121;28;20493;-64
2020/12/19 07:58:40;;;;;;;9.70;8.80;;;8.10;99.90;;;;;;4980120;28;20922;-64
2020/12/19 08:01:06;;;;;;;9.53;8.60;;;8.80;99.90;;;;;;4980209;28;20486;-65
2020/12/19 08:03:32;;;;;;;9.80;8.57;;;9.40;99.90;;;;;;4979653;28;20525;-64
2020/12/19 08:05:58;;;;;;;9.47;8.63;;;9.90;99.90;;;;;;4980522;28;20509;-64
2020/12/19 08:08:25;;;;;;;9.33;8.47;;;10.50;99.90;;;;;;4979870;28;20481;-64
2020/12/19 08:11:00;;;;;;;9.20;8.40;;;10.80;99.90;;;;;;4980583;28;20881;-65
2020/12/19 08:13:27;;;;;;;9.57;8.67;;;11.20;99.90;;;;;;4984212;28;20447;-64
2020/12/19 08:15:55;;;;;;;9.93;9.03;;;11.50;99.90;;;;;;4994050;28;20478;-64
2020/12/19 08:18:22;;;;;;;9.63;8.73;;;12.00;99.90;;;;;;4994451;28;20455;-64
2020/12/19 08:20:49;;;;;;;9.80;8.90;;;12.50;99.90;;;;;;4996482;28;20470;-64
2020/12/19 08:23:15;;;;;;;9.03;8.33;;;13.10;99.90;;;;;;4998243;28;20446;-63
2020/12/19 08:25:42;;;;;;;9.77;8.97;;;13.30;99.90;;;;;;4996051;28;20462;-64
2020/12/19 08:28:19;;;;;;;9.30;8.50;;;13.40;99.90;;;;;;4985324;28;20477;-64
2020/12/19 08:30:46;;;;;;;10.53;9.63;;;13.70;99.90;;;;;;4982926;28;20470;-64
2020/12/19 08:33:12;;;;;;;9.40;8.60;;;14.20;99.90;;;;;;4980376;28;20958;-63
2020/12/19 08:35:40;;;;;;;9.50;8.50;;;15.00;99.90;;;;;;4979833;28;20479;-64
2020/12/19 08:38:07;;;;;;;10.00;9.20;;;15.50;99.90;;;;;;4978240;28;20458;-64
2020/12/19 08:40:36;;;;;;;9.60;8.80;;;15.80;98.90;;;;;;4978649;28;20581;-63
2020/12/19 08:43:02;;;;;;;9.57;8.67;;;16.20;96.80;;;;;;4978116;28;20455;-64
2020/12/19 08:45:29;;;;;;;9.27;8.50;;;16.90;95.90;;;;;;4978016;28;20454;-64
2020/12/19 08:47:59;;;;;;;9.70;8.90;;;17.10;94.40;;;;;;4977249;28;20459;-64
2020/12/19 08:50:28;;;;;;;9.73;8.90;;;17.30;93.30;;;;;;4977107;28;20822;-64
2020/12/19 08:53:08;;;;;;;9.10;8.37;;;17.60;92.60;;;;;;4977342;28;20459;-64
2020/12/19 08:55:34;;;;;;;9.27;8.47;;;18.00;92.00;;;;;;4977045;28;20833;-63
2020/12/19 08:58:01;;;;;;;9.00;8.30;;;18.40;89.40;;;;;;4978172;28;20455;-65
2020/12/19 09:00:37;;;;;;;9.60;8.80;;;18.80;88.40;;;;;;4976722;28;20945;-64
2020/12/19 09:03:06;;;;;;;9.80;8.90;;;18.80;85.20;;;;;;4977297;28;20442;-63
2020/12/19 09:05:34;;;;;;;10.10;9.30;;;19.00;83.20;;;;;;4976913;28;20451;-63
2020/12/19 09:08:01;;;;;;;10.30;9.47;;;18.10;86.50;;;;;;4977183;28;20459;-64
2020/12/19 09:10:29;;;;;;;9.63;8.90;;;17.10;87.50;;;;;;4976802;28;20834;-63
2020/12/19 09:13:14;;;;;;;10.37;9.37;;;15.50;90.20;;;;;;4978200;28;20461;-62
2020/12/19 09:15:41;;;;;;;9.30;8.60;;;13.80;95.90;;;;;;4977032;28;20475;-65
2020/12/19 09:18:32;;;;;;;11.17;10.07;;;13.00;96.50;;;;;;4976600;28;20462;-64
2020/12/19 09:20:59;;;;;;;10.87;9.73;;;12.30;99.90;;;;;;4974177;28;20543;-64
2020/12/19 09:23:27;;;;;;;9.57;8.33;;;11.50;99.90;;;;;;4976677;28;20458;-60
2020/12/19 09:25:54;;;;;;;9.33;8.53;;;11.00;99.90;;;;;;4976609;28;20450;-65
2020/12/19 09:28:21;;;;;;;10.43;9.50;;;10.60;99.90;;;;;;4976478;28;20446;-63
2020/12/19 09:30:47;;;;;;;10.10;9.20;;;10.30;99.90;;;;;;4976444;28;20477;-63
2020/12/19 09:33:14;;;;;;;9.60;8.90;;;10.00;99.90;;;;;;4977837;28;20474;-64
2020/12/19 09:35:41;;;;;;;10.27;8.57;;;9.70;99.90;;;;;;4976243;28;20475;-64
2020/12/19 09:38:07;;;;;;;9.83;8.87;;;9.30;99.90;;;;;;4976346;28;20459;-63
2020/12/19 09:40:34;;;;;;;10.57;9.57;;;9.20;99.90;;;;;;4976025;28;20482;-64
2020/12/19 09:43:00;;;;;;;9.33;8.43;;;9.10;99.90;;;;;;4976975;28;20493;-63
2020/12/19 09:45:27;;;;;;;10.07;9.27;;;8.90;99.90;;;;;;4975892;28;20451;-64
2020/12/19 09:47:55;;;;;;;8.93;8.23;;;8.90;99.90;;;;;;4976440;28;20458;-63
2020/12/19 09:50:21;;;;;;;10.37;9.40;;;8.90;99.90;;;;;;4976233;28;20455;-62
2020/12/19 09:52:48;;;;;;;9.70;8.90;;;8.80;99.90;;;;;;4977147;28;20454;-63
2020/12/19 09:55:15;;;;;;;9.93;9.03;;;8.80;99.90;;;;;;4975856;28;20469;-63
2020/12/19 09:57:41;;;;;;;10.10;9.10;;;8.80;99.90;;;;;;4975801;28;20466;-62
2020/12/19 10:00:09;;;;;;;10.23;9.27;;;8.80;99.90;;;;;;4975534;28;20482;-61
2020/12/19 10:02:35;;;;;;;9.77;8.80;;;8.80;99.90;;;;;;4975430;28;20483;-63
2020/12/19 10:05:02;;;;;;;11.90;8.60;;;8.90;99.90;;;;;;4976977;28;20454;-62
2020/12/19 10:07:28;;;;;;;10.37;8.90;;;9.00;99.90;;;;;;4976097;28;20480;-61
2020/12/19 10:09:56;;;;;;;9.80;8.90;;;9.10;99.90;;;;;;4976104;28;20466;-62
2020/12/19 10:12:22;;;;;;;9.17;8.37;;;9.10;99.90;;;;;;4976512;28;20482;-66
2020/12/19 10:14:48;;;;;;;9.50;8.20;;;9.10;99.90;;;;;;4976803;28;20582;-62
2020/12/19 10:17:14;;;;;;;9.00;8.07;;;9.10;99.90;;;;;;4976385;28;20478;-62
2020/12/19 10:19:44;;;;;;;10.10;9.20;;;9.10;99.90;;;;;;4976359;28;20484;-62
2020/12/19 10:22:10;;;;;;;9.73;8.50;;;9.20;99.90;;;;;;4976247;28;20958;-62
2020/12/19 10:24:36;;;;;;;9.67;8.70;;;9.30;99.90;;;;;;4975382;28;20455;-63
2020/12/19 10:27:03;;;;;;;9.37;8.43;;;9.40;99.90;;;;;;4976079;28;20794;-62
2020/12/19 10:29:29;;;;;;;8.03;7.33;;;9.50;99.90;;;;;;4975020;28;20958;-65
2020/12/19 10:31:56;;;;;;;8.23;7.47;;;9.60;99.90;;;;;;4975499;28;20478;-62
2020/12/19 10:34:22;;;;;;;8.83;7.03;;;10.00;99.90;;;;;;4992556;28;20458;-62
2020/12/19 10:36:52;;;;;;;8.20;7.40;;;10.60;99.90;;;;;;4981483;28;20470;-63
2020/12/19 10:39:18;;;;;;;7.83;7.13;;;11.20;99.90;;;;;;4975594;28;20466;-62
2020/12/19 10:41:48;;;;;;;8.40;6.20;;;12.10;99.90;;;;;;4975243;28;20474;-63
2020/12/19 10:44:15;;;;;;;7.80;6.83;;;12.80;99.90;;;;;;4977167;28;20931;-62
2020/12/19 10:46:42;;;;;;;6.90;6.20;;;13.70;99.90;;;;;;4977416;28;20451;-63
2020/12/19 10:49:08;;;;;;;7.27;6.67;;;14.10;99.90;;;;;;4975404;28;20465;-63
2020/12/19 10:51:34;;;;;;;6.90;6.40;;;14.40;99.90;;;;;;4976927;28;20481;-62
2020/12/19 10:54:00;;;;;;;7.10;6.50;;;14.00;99.90;;;;;;4977400;28;20820;-62
2020/12/19 10:56:27;;;;;;;7.60;7.00;;;13.40;99.90;;;;;;4975926;28;20938;-64
2020/12/19 10:58:54;;;;;;;7.00;6.30;;;12.90;99.90;;;;;;4977108;28;20470;-63
2020/12/19 11:01:21;;;;;;;7.47;6.87;;;12.60;99.90;;;;;;4975646;28;20486;-63
2020/12/19 11:03:47;;;;;;;9.10;8.30;;;12.30;99.90;;;;;;4975800;28;20563;-63
2020/12/19 11:06:21;;;;;;;7.60;6.90;;;12.00;99.90;;;;;;4975601;28;20816;-63
2020/12/19 11:08:47;;;;;;;8.80;8.10;;;11.80;99.90;;;;;;4975635;28;20458;-63
2020/12/19 11:11:14;;;;;;;7.60;7.00;;;11.60;99.90;;;;;;4978117;28;20474;-63
2020/12/19 11:13:40;;;;;;;8.87;7.97;;;11.60;99.90;;;;;;4979252;28;20462;-63
2020/12/19 11:16:07;;;;;;;8.60;7.80;;;11.50;99.90;;;;;;4979471;28;20485;-62
2020/12/19 11:18:34;;;;;;;10.53;7.30;;;11.60;99.90;;;;;;4980317;28;20869;-62
2020/12/19 11:21:03;;;;;;;7.23;6.60;;;11.50;99.90;;;;;;4979668;28;20474;-63
2020/12/19 11:23:29;;;;;;;6.93;6.23;;;11.50;99.90;;;;;;4978948;28;20458;-64
2020/12/19 11:25:56;;;;;;;7.10;6.50;;;11.60;99.90;;;;;;4979114;28;20458;-63
2020/12/19 11:28:22;;;;;;;6.23;5.70;;;11.70;99.90;;;;;;4979112;28;20462;-62
2020/12/19 11:30:48;;;;;;;7.47;6.53;;;11.90;99.90;;;;;;4978522;28;20836;-62
2020/12/19 11:33:15;;;;;;;10.30;7.63;;;12.00;99.90;;;;;;4978908;28;20446;-62
2020/12/19 11:35:42;;;;;;;6.53;5.93;;;12.10;99.90;;;;;;4978999;28;20466;-62
2020/12/19 11:38:09;;;;;;;6.87;6.17;;;12.20;99.90;;;;;;4978889;28;20459;-64
2020/12/19 11:40:35;;;;;;;6.80;6.20;;;12.30;99.90;;;;;;4978466;28;20989;-64
2020/12/19 11:43:01;;;;;;;6.37;5.87;;;12.40;99.90;;;;;;4979070;28;20467;-62
2020/12/19 11:45:27;;;;;;;8.13;7.33;;;12.40;99.90;;;;;;4978781;28;20946;-63
2020/12/19 11:47:53;;;;;;;8.30;6.87;;;12.50;99.90;;;;;;4978605;28;20485;-63
2020/12/19 11:50:20;;;;;;;7.20;6.60;;;12.60;99.90;;;;;;4978471;28;20454;-63
2020/12/19 11:52:47;;;;;;;7.60;6.90;;;12.60;99.90;;;;;;4978493;28;20829;-64
2020/12/19 11:55:13;;;;;;;6.50;6.00;;;12.60;99.90;;;;;;4978212;28;20934;-64
2020/12/19 11:57:39;;;;;;;6.67;6.10;;;12.60;99.90;;;;;;4978055;28;21064;-63
2020/12/19 12:00:06;;;;;;;6.77;6.17;;;12.60;99.90;;;;;;4978292;28;20461;-62
2020/12/19 12:02:32;;;;;;;6.43;5.83;;;12.50;99.90;;;;;;4977850;28;20857;-64
2020/12/19 12:04:59;;;;;;;6.30;5.70;;;12.50;99.90;;;;;;4978999;28;20461;-63
2020/12/19 12:07:25;;;;;;;5.70;5.30;;;12.60;99.90;;;;;;4977941;28;20946;-63
2020/12/19 12:09:52;;;;;;;6.27;5.63;;;12.60;99.90;;;;;;4978384;28;20509;-64
2020/12/19 12:12:18;;;;;;;6.20;5.70;;;12.70;99.90;;;;;;4978025;28;20486;-63
2020/12/19 12:14:44;;;;;;;7.03;6.33;;;12.80;99.90;;;;;;4977752;28;20451;-63
2020/12/19 12:17:11;;;;;;;6.40;5.60;;;12.80;99.90;;;;;;4977809;28;20974;-63
2020/12/19 12:19:37;;;;;;;5.90;5.50;;;12.90;99.90;;;;;;4978471;28;20447;-63
2020/12/19 12:22:03;;;;;;;6.30;5.60;;;13.10;99.90;;;;;;4977606;28;20479;-63
2020/12/19 12:24:29;;;;;;;5.73;5.20;;;13.20;99.90;;;;;;4978186;28;20451;-62
2020/12/19 12:26:56;;;;;;;6.40;5.60;;;13.40;99.90;;;;;;4978166;28;20462;-63
2020/12/19 12:29:23;;;;;;;5.40;5.00;;;13.30;99.90;;;;;;4977741;28;20454;-62
2020/12/19 12:31:49;;;;;;;5.83;5.33;;;13.40;99.90;;;;;;4977993;28;20479;-63
2020/12/19 12:34:16;;;;;;;6.17;5.70;;;13.50;99.90;;;;;;4978431;28;20473;-63
2020/12/19 12:36:42;;;;;;;5.63;4.83;;;13.20;99.90;;;;;;4978286;28;20526;-62
2020/12/19 12:39:09;;;;;;;5.80;5.40;;;13.20;99.90;;;;;;4978308;28;20839;-63
2020/12/19 12:41:35;;;;;;;7.33;5.83;;;13.30;99.90;;;;;;4978061;28;20482;-64
2020/12/19 12:44:02;;;;;;;6.40;5.90;;;13.20;99.90;;;;;;4978141;28;20481;-62
2020/12/19 12:46:29;;;;;;;6.00;5.47;;;13.20;99.90;;;;;;4977990;28;20435;-63
2020/12/19 12:48:55;;;;;;;6.43;5.93;;;13.10;99.90;;;;;;4977913;28;20444;-63
2020/12/19 12:51:21;;;;;;;5.73;5.23;;;13.10;99.90;;;;;;4977999;28;20822;-64
2020/12/19 12:53:47;;;;;;;7.00;6.30;;;13.20;99.90;;;;;;4977753;28;20435;-64
2020/12/19 12:56:15;;;;;;;8.43;6.00;;;13.20;99.90;;;;;;4977880;28;20514;-62
2020/12/19 12:58:41;;;;;;;7.00;6.30;;;13.30;99.90;;;;;;4982525;28;20454;-62
2020/12/19 13:01:08;;;;;;;6.93;6.33;;;13.30;99.90;;;;;;4979905;28;20503;-64
2020/12/19 13:03:34;;;;;;;6.30;5.80;;;13.30;99.90;;;;;;4980505;28;20455;-63
2020/12/19 13:06:01;;;;;;;7.03;6.43;;;13.30;99.90;;;;;;4980329;28;20462;-63
2020/12/19 13:08:27;;;;;;;6.07;5.57;;;13.30;99.90;;;;;;4979193;28;20819;-63
2020/12/19 13:10:53;;;;;;;6.87;6.20;;;13.20;99.90;;;;;;4980181;28;20478;-64
2020/12/19 13:13:19;;;;;;;10.57;6.17;;;13.20;99.90;;;;;;4978561;28;20465;-62
2020/12/19 13:15:46;;;;;;;6.87;6.37;;;13.30;99.90;;;;;;4977373;28;20455;-62
2020/12/19 13:18:13;;;;;;;7.47;6.30;;;13.30;99.90;;;;;;4977437;28;20459;-63
2020/12/19 13:20:39;;;;;;;7.33;6.73;;;13.30;99.90;;;;;;4976688;28;20482;-62
2020/12/19 13:23:06;;;;;;;6.67;6.07;;;13.30;99.90;;;;;;4977394;28;20454;-62
2020/12/19 13:25:32;;;;;;;6.40;5.80;;;13.30;99.90;;;;;;4978437;28;20466;-63
2020/12/19 13:27:58;;;;;;;7.50;6.77;;;13.30;99.90;;;;;;4977101;28;20458;-62
2020/12/19 13:30:25;;;;;;;6.90;6.30;;;13.40;99.90;;;;;;4980819;28;20509;-64
2020/12/19 13:32:51;;;;;;;11.17;6.00;;;13.40;99.90;;;;;;4980728;28;20493;-64
2020/12/19 13:35:18;;;;;;;7.10;6.47;;;13.30;99.90;;;;;;4985685;28;20481;-62
2020/12/19 13:37:45;;;;;;;7.27;6.77;;;13.30;99.90;;;;;;4977080;28;20482;-62
2020/12/19 13:40:12;;;;;;;6.40;5.90;;;13.30;99.90;;;;;;4976781;28;20461;-62
2020/12/19 13:42:39;;;;;;;7.20;6.60;;;13.40;99.90;;;;;;4976335;28;20474;-63
2020/12/19 13:45:07;;;;;;;7.90;6.90;;;13.40;99.90;;;;;;4976891;28;20577;-63
2020/12/19 13:47:33;;;;;;;7.10;6.40;;;13.40;99.90;;;;;;4976273;28;20477;-62
2020/12/19 13:50:00;;;;;;;7.17;6.10;;;13.40;99.90;;;;;;4976191;28;20462;-62
2020/12/19 13:52:27;;;;;;;6.93;6.30;;;13.40;99.90;;;;;;4976087;28;20474;-63
2020/12/19 13:54:53;;;;;;;7.57;6.87;;;13.50;99.90;;;;;;4976072;28;20850;-63
2020/12/19 13:57:19;;;;;;;7.33;6.63;;;13.50;99.90;;;;;;4976443;28;20482;-63
2020/12/19 13:59:45;;;;;;;9.17;7.10;;;13.50;99.90;;;;;;4976380;28;20471;-63
2020/12/19 14:02:12;;;;;;;7.77;7.07;;;13.50;99.90;;;;;;4975728;28;20938;-63
2020/12/19 14:04:39;;;;;;;7.43;6.73;;;13.60;99.90;;;;;;4976364;28;20458;-62
2020/12/19 14:07:06;;;;;;;8.17;7.33;;;13.60;99.90;;;;;;4977355;28;20438;-63
2020/12/19 14:09:36;;;;;;;7.50;6.90;;;13.50;99.90;;;;;;4977097;28;20443;-63
2020/12/19 14:12:03;;;;;;;7.30;6.60;;;13.50;99.90;;;;;;4975914;28;20485;-63
2020/12/19 14:14:30;;;;;;;7.40;6.80;;;13.40;99.90;;;;;;4976213;28;20509;-63
2020/12/19 14:17:00;;;;;;;8.20;7.50;;;13.30;99.90;;;;;;4975479;28;20490;-63
2020/12/19 14:19:26;;;;;;;12.77;8.67;;;13.20;99.90;;;;;;4975845;28;20447;-63
2020/12/19 14:21:52;;;;;;;10.70;8.53;;;13.20;99.90;;;;;;4975725;28;20482;-63
2020/12/19 14:24:18;;;;;;;13.53;11.83;;;13.10;99.90;;;;;;4975488;28;20937;-63
2020/12/19 14:26:45;;;;;;;15.83;11.70;;;13.10;99.90;;;;;;4975671;28;20454;-63
2020/12/19 14:29:12;;;;;;;10.40;9.40;;;13.00;99.90;;;;;;4975717;28;20821;-63
2020/12/19 14:31:38;;;;;;;8.87;8.00;;;13.00;99.90;;;;;;4975759;28;20863;-63
2020/12/19 14:34:04;;;;;;;7.93;7.27;;;12.90;99.90;;;;;;4975931;28;20458;-64
2020/12/19 14:36:30;;;;;;;9.93;8.77;;;12.90;99.90;;;;;;4975089;28;21131;-62
2020/12/19 14:38:57;;;;;;;15.30;9.70;;;12.90;99.90;;;;;;4975773;28;20497;-64
2020/12/19 14:41:24;;;;;;;10.20;9.20;;;12.90;99.90;;;;;;4975243;28;20893;-63
2020/12/19 14:43:52;;;;;;;7.67;6.97;;;12.80;99.90;;;;;;4975530;28;20470;-62
2020/12/19 14:46:19;;;;;;;7.27;6.67;;;12.80;99.90;;;;;;4975108;28;20455;-63
2020/12/19 14:48:47;;;;;;;9.10;7.43;;;12.70;99.90;;;;;;4975591;28;20461;-63
2020/12/19 14:51:15;;;;;;;6.63;6.13;;;12.70;99.90;;;;;;4975570;28;20533;-63
2020/12/19 14:53:41;;;;;;;9.20;6.57;;;12.70;99.90;;;;;;4975495;28;20811;-62
2020/12/19 14:56:08;;;;;;;7.70;6.97;;;12.70;99.90;;;;;;4975516;28;20482;-62
2020/12/19 14:58:35;;;;;;;6.83;6.27;;;12.70;99.90;;;;;;4975632;28;20483;-64
2020/12/19 15:01:02;;;;;;;7.60;6.80;;;12.60;99.90;;;;;;4974855;28;21043;-63
2020/12/19 15:03:29;;;;;;;7.70;6.90;;;12.60;99.90;;;;;;4976293;28;20458;-63
2020/12/19 15:05:55;;;;;;;7.80;7.10;;;12.60;99.90;;;;;;4983610;28;20455;-63
2020/12/19 15:08:21;;;;;;;10.50;7.40;;;12.50;99.90;;;;;;4976472;28;20505;-63
2020/12/19 15:10:47;;;;;;;9.97;7.60;;;12.40;99.90;;;;;;4976212;28;21005;-63
2020/12/19 15:13:13;;;;;;;9.67;6.70;;;12.40;99.90;;;;;;4975561;28;20525;-64
2020/12/19 15:15:40;;;;;;;7.10;6.50;;;12.30;99.90;;;;;;4975195;28;20824;-62
2020/12/19 15:18:07;;;;;;;9.53;6.93;;;12.20;99.90;;;;;;4974894;28;20485;-62
2020/12/19 15:20:35;;;;;;;13.67;7.63;;;12.20;99.90;;;;;;4975051;28;20458;-63
2020/12/19 15:23:02;;;;;;;11.10;8.33;;;12.20;99.90;;;;;;4975319;28;20459;-63
2020/12/19 15:25:28;;;;;;;10.40;7.80;;;12.20;99.90;;;;;;4974593;28;20969;-63
2020/12/19 15:27:55;;;;;;;8.37;7.30;;;12.20;99.90;;;;;;4974986;28;20494;-63
2020/12/19 15:30:21;;;;;;;12.33;7.20;;;12.10;99.90;;;;;;4974904;28;20459;-63
2020/12/19 15:32:49;;;;;;;9.23;6.67;;;12.10;99.90;;;;;;4986285;28;20419;-63
2020/12/19 15:35:16;;;;;;;14.80;7.90;;;12.10;99.90;;;;;;4998994;28;20442;-63
2020/12/19 15:37:43;;;;;;;9.43;7.10;;;12.00;99.90;;;;;;4998486;28;20470;-63
2020/12/19 15:40:09;;;;;;;8.70;7.97;;;12.00;99.90;;;;;;4997950;28;20921;-62
2020/12/19 15:42:35;;;;;;;8.73;7.03;;;12.00;99.90;;;;;;4997889;28;20467;-64
2020/12/19 15:45:02;;;;;;;7.80;7.00;;;12.00;99.90;;;;;;4977779;28;20458;-63
2020/12/19 15:47:28;;;;;;;8.17;7.40;;;11.90;99.90;;;;;;4976775;28;20451;-64
2020/12/19 15:49:54;;;;;;;8.23;7.30;;;11.80;99.90;;;;;;4977003;28;20950;-65
2020/12/19 15:52:21;;;;;;;9.97;7.30;;;11.70;99.90;;;;;;4976447;28;20475;-63
2020/12/19 15:54:47;;;;;;;7.97;7.20;;;11.70;99.90;;;;;;4975671;28;20481;-62
2020/12/19 15:57:13;;;;;;;7.80;6.60;;;11.80;99.90;;;;;;4976034;28;20478;-62
2020/12/19 15:59:40;;;;;;;8.20;7.40;;;11.80;99.90;;;;;;4980268;28;20459;-63
2020/12/19 16:02:06;;;;;;;8.07;7.27;;;11.80;99.90;;;;;;4979427;28;20486;-62
2020/12/19 16:04:32;;;;;;;9.33;8.43;;;11.80;99.90;;;;;;4993931;28;20457;-63
2020/12/19 16:06:59;;;;;;;11.30;8.60;;;11.70;99.90;;;;;;4997142;28;20818;-63
2020/12/19 16:09:26;;;;;;;13.47;7.30;;;11.70;99.90;;;;;;4996829;28;20457;-62
2020/12/19 16:11:53;;;;;;;8.53;7.63;;;11.60;99.90;;;;;;4995453;28;20889;-63
2020/12/19 16:14:20;;;;;;;8.20;7.33;;;11.60;99.90;;;;;;4985380;28;20485;-63
2020/12/19 16:16:47;;;;;;;8.03;6.57;;;11.70;99.90;;;;;;4982795;28;21004;-63
2020/12/19 16:19:13;;;;;;;7.33;6.57;;;11.60;99.90;;;;;;4985571;28;20463;-64
2020/12/19 16:21:40;;;;;;;7.57;6.80;;;11.60;99.90;;;;;;4989073;28;20502;-64
2020/12/19 16:24:07;;;;;;;9.73;7.80;;;11.60;99.90;;;;;;4989837;28;20950;-62
2020/12/19 16:26:35;;;;;;;9.17;8.37;;;11.60;99.90;;;;;;4989816;28;20465;-63
2020/12/19 16:29:01;;;;;;;9.20;8.30;;;11.50;99.90;;;;;;4991557;28;20501;-63
2020/12/19 16:31:32;;;;;;;9.30;8.40;;;11.60;99.90;;;;;;4990750;28;20477;-63
2020/12/19 16:33:59;;;;;;;8.60;7.80;;;11.50;99.90;;;;;;4992822;28;20462;-64
2020/12/19 16:36:25;;;;;;;9.90;7.87;;;11.50;99.90;;;;;;4989379;28;20475;-63
2020/12/19 16:38:52;;;;;;;8.10;7.30;;;11.40;99.90;;;;;;4984923;28;20462;-65
2020/12/19 16:41:19;;;;;;;10.30;8.50;;;11.30;99.90;;;;;;4986038;28;20478;-64
2020/12/19 16:43:47;;;;;;;8.27;7.47;;;11.30;99.90;;;;;;4987866;28;20482;-63
2020/12/19 16:46:13;;;;;;;8.73;7.90;;;11.30;99.90;;;;;;4990002;28;20491;-64
2020/12/19 16:48:39;;;;;;;9.23;8.20;;;11.30;99.90;;;;;;4993702;28;20447;-63
2020/12/19 16:51:06;;;;;;;13.30;8.43;;;11.30;99.90;;;;;;4993872;28;20489;-64
2020/12/19 16:53:32;;;;;;;8.97;8.17;;;11.30;99.90;;;;;;4993859;28;20446;-64
2020/12/19 16:55:58;;;;;;;10.30;9.20;;;11.20;99.90;;;;;;4993930;28;20439;-64
2020/12/19 16:58:24;;;;;;;9.77;8.73;;;11.20;99.90;;;;;;4994783;28;20455;-62
2020/12/19 17:00:51;;;;;;;11.40;8.63;;;11.10;99.90;;;;;;4994109;28;20474;-65
2020/12/19 17:03:17;;;;;;;9.77;8.97;;;11.00;99.90;;;;;;4993845;28;20431;-63
2020/12/19 17:05:44;;;;;;;13.70;9.07;;;10.90;99.90;;;;;;4992444;28;20462;-63
2020/12/19 17:08:10;;;;;;;10.17;9.17;;;10.90;99.90;;;;;;4991954;28;20447;-63
2020/12/19 17:10:36;;;;;;;10.30;9.13;;;10.90;99.90;;;;;;4991895;28;20457;-64
2020/12/19 17:13:02;;;;;;;9.77;8.87;;;10.90;99.90;;;;;;4993788;28;20447;-63
2020/12/19 17:15:28;;;;;;;9.10;8.20;;;10.70;99.90;;;;;;4997718;28;20441;-63
2020/12/19 17:17:55;;;;;;;11.03;8.80;;;10.80;99.90;;;;;;4996362;28;20470;-63
2020/12/19 17:20:21;;;;;;;12.00;8.07;;;10.80;99.90;;;;;;4998892;28;20439;-63
2020/12/19 17:22:48;;;;;;;8.63;7.83;;;10.80;99.90;;;;;;4998466;28;20450;-64
2020/12/19 17:25:14;;;;;;;11.07;8.53;;;10.70;99.90;;;;;;4999574;28;20435;-62
2020/12/19 17:27:42;;;;;;;11.03;9.00;;;10.60;99.90;;;;;;4999251;28;20449;-63
2020/12/19 17:30:08;;;;;;;8.23;7.43;;;10.60;99.90;;;;;;4993331;28;20455;-62
2020/12/19 17:32:35;;;;;;;10.83;8.70;;;10.50;99.90;;;;;;4998066;28;20470;-64
2020/12/19 17:35:03;;;;;;;9.60;7.90;;;10.40;99.90;;;;;;4997143;28;20427;-63
2020/12/19 17:37:29;;;;;;;10.70;8.30;;;10.50;99.90;;;;;;4998830;28;20463;-64
2020/12/19 17:39:55;;;;;;;9.87;8.53;;;10.40;99.90;;;;;;4997856;28;20455;-63
2020/12/19 17:42:21;;;;;;;10.17;8.80;;;10.40;99.90;;;;;;4998937;28;20551;-63
2020/12/19 17:44:47;;;;;;;10.43;9.03;;;10.40;99.90;;;;;;4999421;28;20454;-63